Time;durP1;ratioP1;P1;durP2;ratioP2;P2;SDS_P1;SDS_P2;PMS_P1;PMS_P2;Temp;Humidity;BMP_temperature;BMP_pressure;BME280_temperature;BME280_humidity;BME280_pressure;Samples;Min_cycle;Max_cycle;Signal;HPM_P1;HPM_P2
2021/07/18 00:00:11;;;;;;;46.15;8.88;;;;;;;;;;5046064;28;20057;-36
2021/07/18 00:02:38;;;;;;;27.83;6.75;;;;;;;;;;5045701;28;20060;-37
2021/07/18 00:05:05;;;;;;;33.97;7.45;;;;;;;;;;5045766;28;21052;-34
2021/07/18 00:07:33;;;;;;;28.42;7.30;;;;;;;;;;5046420;28;20028;-33
2021/07/18 00:10:00;;;;;;;41.33;7.68;;;;;;;;;;5044907;28;20017;-35
2021/07/18 00:12:28;;;;;;;26.23;6.38;;;;;;;;;;5044990;28;20035;-32
2021/07/18 00:14:55;;;;;;;27.35;7.22;;;;;;;;;;5044250;28;20112;-34
2021/07/18 00:17:23;;;;;;;25.95;6.60;;;;;;;;;;5047999;28;20427;-38
2021/07/18 00:19:50;;;;;;;30.63;7.18;;;;;;;;;;5046611;28;20104;-35
2021/07/18 00:22:17;;;;;;;26.05;7.13;;;;;;;;;;5043306;28;20892;-51
2021/07/18 00:24:44;;;;;;;21.40;6.32;;;;;;;;;;5043369;28;20128;-38
2021/07/18 00:27:11;;;;;;;28.60;7.05;;;;;;;;;;5047326;28;20051;-49
2021/07/18 00:29:40;;;;;;;24.85;6.43;;;;;;;;;;5045890;28;20431;-39
2021/07/18 00:32:08;;;;;;;29.27;6.88;;;;;;;;;;5046288;28;20031;-34
2021/07/18 00:34:35;;;;;;;26.38;6.80;;;;;;;;;;5044490;28;20040;-38
2021/07/18 00:37:02;;;;;;;22.25;6.28;;;;;;;;;;5045035;28;20029;-33
2021/07/18 00:39:29;;;;;;;22.00;5.82;;;;;;;;;;5045274;28;20440;-33
2021/07/18 00:41:57;;;;;;;22.67;6.78;;;;;;;;;;5044601;28;20013;-34
2021/07/18 00:44:24;;;;;;;28.13;7.00;;;;;;;;;;5045999;28;20039;-33
2021/07/18 00:46:51;;;;;;;25.13;6.30;;;;;;;;;;5049517;28;20407;-34
2021/07/18 00:49:18;;;;;;;30.52;7.05;;;;;;;;;;5044674;28;20017;-32
2021/07/18 00:51:45;;;;;;;21.80;6.40;;;;;;;;;;5042913;28;20033;-36
2021/07/18 00:54:13;;;;;;;23.42;6.25;;;;;;;;;;5046149;28;20439;-33
2021/07/18 00:56:41;;;;;;;32.50;6.78;;;;;;;;;;5039099;28;20033;-45
2021/07/18 00:59:09;;;;;;;23.42;5.90;;;;;;;;;;5044498;28;20032;-34
2021/07/18 01:01:36;;;;;;;22.65;6.00;;;;;;;;;;5048674;28;20021;-41
2021/07/18 01:04:03;;;;;;;19.85;5.30;;;;;;;;;;5046838;28;20036;-44
2021/07/18 01:06:31;;;;;;;24.20;6.60;;;;;;;;;;5044829;28;20017;-41
2021/07/18 01:08:58;;;;;;;19.75;5.70;;;;;;;;;;5036271;28;20488;-45
2021/07/18 01:11:25;;;;;;;21.00;5.93;;;;;;;;;;5033095;28;20029;-42
2021/07/18 01:13:52;;;;;;;22.65;5.78;;;;;;;;;;5050290;28;20099;-44
2021/07/18 01:16:19;;;;;;;28.45;6.15;;;;;;;;;;5049020;28;20025;-41
2021/07/18 01:18:46;;;;;;;26.88;5.55;;;;;;;;;;5047028;28;20070;-43
2021/07/18 01:21:13;;;;;;;16.45;5.07;;;;;;;;;;5049152;28;20104;-36
2021/07/18 01:23:40;;;;;;;22.60;5.45;;;;;;;;;;5044106;28;20024;-35
2021/07/18 01:26:08;;;;;;;21.00;5.57;;;;;;;;;;5047226;28;20059;-46
2021/07/18 01:28:35;;;;;;;18.25;5.28;;;;;;;;;;5042242;28;20032;-38
2021/07/18 01:31:02;;;;;;;15.40;4.28;;;;;;;;;;5037879;28;20033;-46
2021/07/18 01:33:29;;;;;;;16.50;4.82;;;;;;;;;;5041901;28;20484;-42
2021/07/18 01:35:56;;;;;;;18.63;5.90;;;;;;;;;;5036489;28;20026;-46
2021/07/18 01:38:23;;;;;;;17.55;4.75;;;;;;;;;;5041937;28;20025;-41
2021/07/18 01:40:50;;;;;;;17.65;4.85;;;;;;;;;;5034088;28;20411;-41
2021/07/18 01:43:18;;;;;;;28.15;4.57;;;;;;;;;;5039262;28;20042;-44
2021/07/18 01:45:45;;;;;;;18.25;5.15;;;;;;;;;;5038829;28;20029;-38
2021/07/18 01:48:12;;;;;;;18.23;4.35;;;;;;;;;;5046996;28;20100;-36
2021/07/18 01:50:39;;;;;;;17.17;4.57;;;;;;;;;;5049629;28;20026;-36
2021/07/18 01:53:06;;;;;;;13.45;3.78;;;;;;;;;;5045495;28;20021;-42
2021/07/18 01:55:34;;;;;;;15.68;4.80;;;;;;;;;;5042460;28;20029;-36
2021/07/18 01:58:01;;;;;;;14.07;5.00;;;;;;;;;;5042021;28;20056;-42
2021/07/18 02:00:28;;;;;;;17.77;4.20;;;;;;;;;;5043745;28;20016;-34
2021/07/18 02:02:55;;;;;;;20.35;4.07;;;;;;;;;;5044864;28;20031;-34
2021/07/18 02:05:22;;;;;;;20.45;4.07;;;;;;;;;;5047572;28;20048;-33
2021/07/18 02:07:50;;;;;;;21.10;5.13;;;;;;;;;;5046089;28;20083;-35
2021/07/18 02:10:18;;;;;;;17.25;4.40;;;;;;;;;;5047874;28;20017;-42
2021/07/18 02:12:45;;;;;;;20.95;4.00;;;;;;;;;;5045894;28;20051;-40
2021/07/18 02:15:13;;;;;;;20.23;4.57;;;;;;;;;;5045577;28;20059;-36
2021/07/18 02:17:40;;;;;;;13.25;3.38;;;;;;;;;;5046829;28;20017;-33
2021/07/18 02:20:10;;;;;;;17.73;3.70;;;;;;;;;;5048076;28;20037;-33
2021/07/18 02:22:47;;;;;;;13.32;3.67;;;;;;;;;;5045265;28;20014;-33
2021/07/18 02:25:15;;;;;;;19.50;5.40;;;;;;;;;;5042802;28;20067;-35
2021/07/18 02:27:43;;;;;;;18.67;4.07;;;;;;;;;;5040541;28;20021;-34
2021/07/18 02:30:12;;;;;;;14.27;3.63;;;;;;;;;;5042168;28;20025;-42
2021/07/18 02:32:39;;;;;;;17.92;3.83;;;;;;;;;;5043319;28;20028;-35
2021/07/18 02:35:07;;;;;;;18.63;3.85;;;;;;;;;;5043674;28;20060;-33
2021/07/18 02:37:34;;;;;;;17.10;3.60;;;;;;;;;;5044227;28;20473;-37
2021/07/18 02:40:02;;;;;;;10.88;3.30;;;;;;;;;;5043033;28;21535;-43
2021/07/18 02:42:29;;;;;;;12.05;2.97;;;;;;;;;;5047245;28;20044;-40
2021/07/18 02:44:56;;;;;;;18.23;3.65;;;;;;;;;;5047720;28;20431;-49
2021/07/18 02:47:23;;;;;;;25.90;4.05;;;;;;;;;;5048860;28;20033;-42
2021/07/18 02:49:50;;;;;;;11.15;3.40;;;;;;;;;;5048068;28;20040;-33
2021/07/18 02:52:17;;;;;;;16.80;3.15;;;;;;;;;;5045080;28;20056;-40
2021/07/18 02:54:45;;;;;;;17.67;3.40;;;;;;;;;;5059221;28;20397;-33
2021/07/18 02:57:12;;;;;;;26.48;3.30;;;;;;;;;;5046675;28;20021;-39
2021/07/18 02:59:39;;;;;;;12.07;3.08;;;;;;;;;;5046855;28;20791;-36
2021/07/18 03:02:06;;;;;;;14.13;3.47;;;;;;;;;;5047600;28;20013;-33
2021/07/18 03:04:33;;;;;;;11.23;2.90;;;;;;;;;;5048457;28;20060;-33
2021/07/18 03:07:00;;;;;;;15.25;3.30;;;;;;;;;;5044593;28;20100;-35
2021/07/18 03:09:27;;;;;;;9.68;3.17;;;;;;;;;;5047366;28;20388;-37
2021/07/18 03:11:54;;;;;;;15.05;2.97;;;;;;;;;;5046109;28;20358;-36
2021/07/18 03:14:21;;;;;;;18.13;3.10;;;;;;;;;;5049139;28;20025;-38
2021/07/18 03:16:49;;;;;;;18.65;3.03;;;;;;;;;;5049655;28;20070;-41
2021/07/18 03:19:16;;;;;;;15.45;2.90;;;;;;;;;;5046720;28;20035;-38
2021/07/18 03:21:43;;;;;;;14.30;2.95;;;;;;;;;;5044688;28;20021;-41
2021/07/18 03:24:10;;;;;;;20.85;2.78;;;;;;;;;;5045162;28;20576;-40
2021/07/18 03:26:37;;;;;;;9.52;2.97;;;;;;;;;;5052288;28;20469;-37
2021/07/18 03:29:04;;;;;;;12.20;2.47;;;;;;;;;;5041774;28;20029;-35
2021/07/18 03:31:31;;;;;;;16.63;2.60;;;;;;;;;;5042440;28;20029;-38
2021/07/18 03:33:58;;;;;;;18.05;2.83;;;;;;;;;;5049302;28;20511;-41
2021/07/18 03:36:25;;;;;;;9.50;2.03;;;;;;;;;;5047745;28;20029;-36
2021/07/18 03:38:52;;;;;;;13.85;2.90;;;;;;;;;;5043140;28;20079;-43
2021/07/18 03:41:20;;;;;;;13.77;2.50;;;;;;;;;;5040253;28;20115;-37
2021/07/18 03:43:48;;;;;;;25.95;2.80;;;;;;;;;;5048897;28;20393;-39
2021/07/18 03:46:15;;;;;;;16.90;3.03;;;;;;;;;;5049978;28;20087;-38
2021/07/18 03:48:42;;;;;;;15.80;2.63;;;;;;;;;;5045656;28;20021;-40
2021/07/18 03:51:09;;;;;;;13.07;2.05;;;;;;;;;;5045083;28;20076;-39
2021/07/18 03:53:36;;;;;;;14.88;3.05;;;;;;;;;;5049561;28;20450;-37
2021/07/18 03:56:03;;;;;;;17.33;2.35;;;;;;;;;;5048626;28;20386;-38
2021/07/18 03:58:30;;;;;;;11.88;2.45;;;;;;;;;;5045013;28;20100;-42
2021/07/18 04:00:57;;;;;;;9.90;2.38;;;;;;;;;;5048378;28;20055;-38
2021/07/18 04:03:24;;;;;;;13.82;2.15;;;;;;;;;;5047172;28;20380;-39
2021/07/18 04:05:51;;;;;;;9.85;1.77;;;;;;;;;;5048866;28;20074;-38
2021/07/18 04:08:18;;;;;;;7.85;1.98;;;;;;;;;;5039771;28;20029;-35
2021/07/18 04:10:45;;;;;;;10.55;2.13;;;;;;;;;;5047239;28;20032;-40
2021/07/18 04:13:12;;;;;;;8.05;1.80;;;;;;;;;;5044093;28;20132;-36
2021/07/18 04:15:39;;;;;;;6.55;1.70;;;;;;;;;;5039793;28;20021;-39
2021/07/18 04:18:13;;;;;;;6.10;1.60;;;;;;;;;;5045322;28;20504;-38
2021/07/18 04:20:40;;;;;;;7.50;1.80;;;;;;;;;;5051426;28;20564;-38
2021/07/18 04:23:08;;;;;;;12.20;2.33;;;;;;;;;;5049645;28;20500;-37
2021/07/18 04:25:35;;;;;;;6.85;1.88;;;;;;;;;;5044245;28;20029;-35
2021/07/18 04:28:03;;;;;;;5.45;1.70;;;;;;;;;;5047001;28;20037;-37
2021/07/18 04:30:30;;;;;;;7.50;2.05;;;;;;;;;;5034281;28;20034;-37
2021/07/18 04:32:57;;;;;;;5.57;1.73;;;;;;;;;;5043886;28;20461;-37
2021/07/18 04:35:25;;;;;;;6.63;1.58;;;;;;;;;;5048977;28;20037;-36
2021/07/18 04:37:52;;;;;;;5.32;2.08;;;;;;;;;;5048626;28;20082;-35
2021/07/18 04:40:19;;;;;;;6.15;1.50;;;;;;;;;;5045776;28;20465;-36
2021/07/18 04:42:46;;;;;;;6.85;1.73;;;;;;;;;;5048786;28;20052;-34
2021/07/18 04:45:13;;;;;;;8.23;2.03;;;;;;;;;;5045812;28;20021;-37
2021/07/18 04:47:44;;;;;;;7.07;1.65;;;;;;;;;;5048069;28;20472;-36
2021/07/18 04:50:11;;;;;;;9.32;1.73;;;;;;;;;;5042603;28;20036;-35
2021/07/18 04:52:39;;;;;;;9.68;1.58;;;;;;;;;;5048593;28;20021;-35
2021/07/18 04:55:06;;;;;;;5.88;1.25;;;;;;;;;;5051421;28;20149;-36
2021/07/18 04:57:33;;;;;;;5.57;1.38;;;;;;;;;;5049249;28;20108;-36
2021/07/18 05:00:00;;;;;;;2.83;1.20;;;;;;;;;;5051548;28;20052;-36
2021/07/18 05:02:27;;;;;;;6.47;1.60;;;;;;;;;;5050970;28;20025;-35
2021/07/18 05:04:54;;;;;;;5.25;1.30;;;;;;;;;;5051206;28;20035;-35
2021/07/18 05:07:21;;;;;;;5.15;1.50;;;;;;;;;;5051826;28;20396;-36
2021/07/18 05:09:48;;;;;;;5.68;1.33;;;;;;;;;;5051428;28;20094;-35
2021/07/18 05:12:15;;;;;;;5.82;1.30;;;;;;;;;;5051712;28;20519;-35
2021/07/18 05:14:42;;;;;;;5.63;1.27;;;;;;;;;;5051261;28;20048;-35
2021/07/18 05:17:10;;;;;;;5.20;1.17;;;;;;;;;;5051753;28;20019;-35
2021/07/18 05:19:37;;;;;;;4.55;1.48;;;;;;;;;;5051042;28;20033;-35
2021/07/18 05:22:04;;;;;;;3.05;1.02;;;;;;;;;;5052051;28;20021;-36
2021/07/18 05:24:31;;;;;;;5.38;1.42;;;;;;;;;;5051085;28;20104;-34
2021/07/18 05:26:58;;;;;;;4.28;1.30;;;;;;;;;;5051667;28;20108;-35
2021/07/18 05:29:25;;;;;;;6.00;1.35;;;;;;;;;;5051361;28;20453;-34
2021/07/18 05:31:52;;;;;;;4.57;0.90;;;;;;;;;;5051656;28;20032;-34
2021/07/18 05:34:19;;;;;;;5.57;1.35;;;;;;;;;;5050741;28;20069;-34
2021/07/18 05:36:46;;;;;;;4.15;1.17;;;;;;;;;;5051667;28;20033;-34
2021/07/18 05:39:13;;;;;;;3.63;1.20;;;;;;;;;;5051058;28;20404;-37
2021/07/18 05:41:40;;;;;;;7.22;1.30;;;;;;;;;;5051416;28;20104;-37
2021/07/18 05:44:07;;;;;;;3.47;1.10;;;;;;;;;;5051373;28;20064;-35
2021/07/18 05:46:34;;;;;;;4.50;1.20;;;;;;;;;;5051050;28;20082;-35
2021/07/18 05:49:01;;;;;;;4.32;0.90;;;;;;;;;;5051452;28;20086;-34
2021/07/18 05:51:29;;;;;;;5.38;1.08;;;;;;;;;;5051093;28;20447;-35
2021/07/18 05:53:56;;;;;;;4.38;1.17;;;;;;;;;;5051127;28;20037;-34
2021/07/18 05:56:23;;;;;;;5.57;1.60;;;;;;;;;;5050965;28;20594;-34
2021/07/18 05:58:49;;;;;;;6.15;1.30;;;;;;;;;;5051447;28;20028;-35
2021/07/18 06:01:16;;;;;;;3.70;1.20;;;;;;;;;;5051003;28;20024;-36
2021/07/18 06:03:43;;;;;;;3.45;1.17;;;;;;;;;;5051000;28;20025;-35
2021/07/18 06:06:10;;;;;;;4.18;1.40;;;;;;;;;;5050778;28;20021;-34
2021/07/18 06:08:37;;;;;;;3.88;1.30;;;;;;;;;;5051375;28;20021;-36
2021/07/18 06:11:04;;;;;;;2.45;0.90;;;;;;;;;;5050844;28;20405;-35
2021/07/18 06:13:32;;;;;;;2.38;1.13;;;;;;;;;;5052768;28;20028;-34
2021/07/18 06:15:58;;;;;;;5.20;1.10;;;;;;;;;;5054183;28;20033;-35
2021/07/18 06:18:25;;;;;;;2.28;1.17;;;;;;;;;;5054904;28;20096;-35
2021/07/18 06:20:52;;;;;;;2.20;1.00;;;;;;;;;;5055063;28;20021;-35
2021/07/18 06:23:19;;;;;;;2.22;1.00;;;;;;;;;;5054565;28;20104;-35
2021/07/18 06:25:46;;;;;;;2.10;1.00;;;;;;;;;;5054755;28;20552;-36
2021/07/18 06:28:13;;;;;;;2.45;1.08;;;;;;;;;;5054321;28;20040;-35
2021/07/18 06:30:40;;;;;;;3.70;1.27;;;;;;;;;;5054802;28;20021;-34
2021/07/18 06:33:07;;;;;;;3.50;1.00;;;;;;;;;;5054074;28;20107;-35
2021/07/18 06:35:35;;;;;;;1.77;0.77;;;;;;;;;;5054653;28;20025;-35
2021/07/18 06:38:02;;;;;;;4.13;0.90;;;;;;;;;;5054281;28;20021;-35
2021/07/18 06:40:30;;;;;;;2.25;1.02;;;;;;;;;;5054624;28;20396;-36
2021/07/18 06:42:56;;;;;;;3.08;1.08;;;;;;;;;;5053866;28;20076;-35
2021/07/18 06:45:24;;;;;;;2.30;0.93;;;;;;;;;;5054406;28;20021;-35
2021/07/18 06:47:51;;;;;;;3.35;1.20;;;;;;;;;;5053850;28;20032;-35
2021/07/18 06:50:20;;;;;;;3.92;0.98;;;;;;;;;;5054332;28;20021;-35
2021/07/18 06:52:47;;;;;;;2.55;0.90;;;;;;;;;;5052712;28;20064;-35
2021/07/18 06:55:14;;;;;;;2.67;1.13;;;;;;;;;;5054203;28;20498;-35
2021/07/18 06:57:47;;;;;;;2.20;1.05;;;;;;;;;;5054259;28;20035;-38
2021/07/18 07:00:15;;;;;;;3.45;1.10;;;;;;;;;;5054346;28;20025;-35
2021/07/18 07:02:42;;;;;;;2.60;1.00;;;;;;;;;;5053682;28;20028;-35
2021/07/18 07:05:09;;;;;;;2.70;1.20;;;;;;;;;;5053571;28;20029;-34
2021/07/18 07:07:36;;;;;;;4.85;1.20;;;;;;;;;;5054145;28;20028;-35
2021/07/18 07:10:04;;;;;;;2.13;0.85;;;;;;;;;;5053490;28;20029;-34
2021/07/18 07:12:31;;;;;;;3.15;1.05;;;;;;;;;;5054048;28;20089;-34
2021/07/18 07:15:00;;;;;;;3.10;1.10;;;;;;;;;;5053492;28;20040;-35
2021/07/18 07:17:27;;;;;;;2.05;1.00;;;;;;;;;;5054119;28;20059;-35
2021/07/18 07:19:54;;;;;;;2.45;1.00;;;;;;;;;;5053422;28;20108;-34
2021/07/18 07:22:21;;;;;;;1.75;0.90;;;;;;;;;;5053825;28;20029;-35
2021/07/18 07:24:48;;;;;;;4.20;0.95;;;;;;;;;;5052949;28;20530;-34
2021/07/18 07:27:15;;;;;;;1.85;1.17;;;;;;;;;;5053497;28;20073;-34
2021/07/18 07:29:42;;;;;;;2.65;1.17;;;;;;;;;;5053317;28;20104;-35
2021/07/18 07:32:09;;;;;;;5.00;1.35;;;;;;;;;;5053928;28;20125;-35
2021/07/18 07:34:37;;;;;;;3.53;1.08;;;;;;;;;;5053140;28;20111;-36
2021/07/18 07:37:04;;;;;;;1.88;1.08;;;;;;;;;;5053476;28;20499;-35
2021/07/18 07:39:31;;;;;;;2.03;0.88;;;;;;;;;;5053382;28;20088;-33
2021/07/18 07:41:58;;;;;;;2.17;0.93;;;;;;;;;;5053064;28;20020;-34
2021/07/18 07:44:25;;;;;;;2.67;1.10;;;;;;;;;;5053437;28;20040;-36
2021/07/18 07:46:52;;;;;;;2.17;1.20;;;;;;;;;;5052818;28;20059;-36
2021/07/18 07:49:19;;;;;;;1.75;0.90;;;;;;;;;;5053480;28;20036;-35
2021/07/18 07:51:46;;;;;;;4.68;1.33;;;;;;;;;;5048656;28;20075;-35
2021/07/18 07:54:13;;;;;;;3.88;1.10;;;;;;;;;;5050926;28;20040;-36
2021/07/18 07:56:40;;;;;;;2.80;1.25;;;;;;;;;;5051655;28;20021;-35
2021/07/18 07:59:06;;;;;;;2.60;1.05;;;;;;;;;;5052772;28;20146;-34
2021/07/18 08:01:34;;;;;;;3.03;1.13;;;;;;;;;;5052535;28;20021;-35
2021/07/18 08:04:01;;;;;;;3.33;1.02;;;;;;;;;;5052791;28;20086;-36
2021/07/18 08:06:28;;;;;;;3.75;1.20;;;;;;;;;;5050032;28;20021;-36
2021/07/18 08:08:55;;;;;;;3.17;1.23;;;;;;;;;;5052654;28;20028;-36
2021/07/18 08:11:22;;;;;;;2.60;1.13;;;;;;;;;;5052010;28;20500;-35
2021/07/18 08:13:49;;;;;;;2.13;0.98;;;;;;;;;;5052417;28;20040;-35
2021/07/18 08:16:16;;;;;;;3.35;0.93;;;;;;;;;;5052316;28;20028;-36
2021/07/18 08:18:43;;;;;;;1.65;0.98;;;;;;;;;;5049738;28;20021;-36
2021/07/18 08:21:10;;;;;;;2.35;1.00;;;;;;;;;;5052449;28;20536;-35
2021/07/18 08:23:37;;;;;;;3.22;1.20;;;;;;;;;;5050870;28;20402;-36
2021/07/18 08:26:05;;;;;;;1.85;1.00;;;;;;;;;;5051181;28;20029;-36
2021/07/18 08:28:32;;;;;;;1.85;0.68;;;;;;;;;;5051993;28;20027;-37
2021/07/18 08:30:59;;;;;;;1.77;1.00;;;;;;;;;;5048822;28;20094;-36
2021/07/18 08:33:26;;;;;;;1.65;0.95;;;;;;;;;;5051618;28;20075;-36
2021/07/18 08:35:53;;;;;;;3.03;1.10;;;;;;;;;;5052061;28;20094;-34
2021/07/18 08:38:20;;;;;;;2.25;1.20;;;;;;;;;;5050944;28;20021;-36
2021/07/18 08:40:50;;;;;;;2.47;1.20;;;;;;;;;;5052170;28;20013;-36
2021/07/18 08:43:19;;;;;;;2.85;0.80;;;;;;;;;;5048857;28;20049;-37
2021/07/18 08:45:47;;;;;;;2.30;1.05;;;;;;;;;;5052052;28;20043;-37
2021/07/18 08:48:14;;;;;;;1.70;0.98;;;;;;;;;;5051369;28;20051;-35
2021/07/18 08:50:41;;;;;;;2.10;0.90;;;;;;;;;;5052133;28;20012;-36
2021/07/18 08:53:08;;;;;;;3.13;1.00;;;;;;;;;;5051041;28;20042;-34
2021/07/18 08:55:35;;;;;;;4.95;0.95;;;;;;;;;;5050215;28;20059;-36
2021/07/18 08:58:02;;;;;;;3.45;1.10;;;;;;;;;;5051066;28;20036;-35
2021/07/18 09:00:29;;;;;;;1.95;0.90;;;;;;;;;;5051912;28;20415;-37
2021/07/18 09:02:56;;;;;;;3.50;1.00;;;;;;;;;;5051794;28;20044;-35
2021/07/18 09:05:24;;;;;;;1.92;0.95;;;;;;;;;;5050224;28;20025;-36
2021/07/18 09:07:52;;;;;;;2.95;1.23;;;;;;;;;;5050070;28;20048;-35
2021/07/18 09:10:21;;;;;;;2.33;1.00;;;;;;;;;;5051149;28;20029;-35
2021/07/18 09:13:07;;;;;;;3.58;0.80;;;;;;;;;;5051508;28;20021;-36
2021/07/18 09:15:48;;;;;;;2.47;0.90;;;;;;;;;;5050920;28;20041;-36
2021/07/18 09:18:23;;;;;;;2.38;1.08;;;;;;;;;;5049545;28;20040;-36
2021/07/18 09:20:51;;;;;;;1.60;0.80;;;;;;;;;;5050807;28;20472;-36
2021/07/18 09:23:25;;;;;;;2.53;0.80;;;;;;;;;;5051427;28;20017;-36
2021/07/18 09:25:53;;;;;;;2.13;0.70;;;;;;;;;;5051080;28;20029;-37
2021/07/18 09:28:23;;;;;;;1.77;1.00;;;;;;;;;;5051328;28;20353;-36
2021/07/18 09:30:50;;;;;;;2.63;0.90;;;;;;;;;;5048716;28;20108;-36
2021/07/18 09:33:23;;;;;;;1.60;0.90;;;;;;;;;;5051407;28;20111;-36
2021/07/18 09:35:50;;;;;;;3.08;0.90;;;;;;;;;;5050908;28;20029;-36
2021/07/18 09:38:21;;;;;;;3.10;0.85;;;;;;;;;;5051107;28;20086;-35
2021/07/18 09:40:59;;;;;;;3.20;1.10;;;;;;;;;;5050971;28;20029;-36
2021/07/18 09:43:29;;;;;;;2.80;1.10;;;;;;;;;;5048995;28;20197;-36
2021/07/18 09:46:01;;;;;;;2.78;0.80;;;;;;;;;;5050787;28;20037;-43
2021/07/18 09:48:38;;;;;;;2.17;0.68;;;;;;;;;;5052565;28;20032;-35
2021/07/18 09:51:10;;;;;;;3.45;0.85;;;;;;;;;;5054966;28;20028;-36
2021/07/18 09:53:37;;;;;;;1.85;0.90;;;;;;;;;;5054257;28;20051;-36
2021/07/18 09:56:08;;;;;;;1.92;0.90;;;;;;;;;;5053355;28;20036;-32
2021/07/18 09:58:36;;;;;;;3.65;0.77;;;;;;;;;;5055071;28;20022;-35
2021/07/18 10:01:04;;;;;;;1.80;0.90;;;;;;;;;;5054773;28;20538;-33
2021/07/18 10:03:31;;;;;;;1.63;0.77;;;;;;;;;;5055112;28;20028;-36
2021/07/18 10:06:15;;;;;;;2.70;0.70;;;;;;;;;;5053491;28;20035;-35
2021/07/18 10:08:43;;;;;;;1.20;0.80;;;;;;;;;;5054097;28;20025;-35
2021/07/18 10:11:11;;;;;;;2.03;0.95;;;;;;;;;;5054890;28;20017;-34
2021/07/18 10:13:39;;;;;;;2.10;0.75;;;;;;;;;;5054239;28;20688;-37
2021/07/18 10:16:09;;;;;;;5.57;0.80;;;;;;;;;;5054801;28;20101;-34
2021/07/18 10:18:36;;;;;;;1.63;0.55;;;;;;;;;;5052120;28;20040;-36
2021/07/18 10:21:03;;;;;;;2.35;0.70;;;;;;;;;;5053653;28;20036;-36
2021/07/18 10:23:32;;;;;;;2.42;0.80;;;;;;;;;;5053017;28;20025;-36
2021/07/18 10:26:00;;;;;;;2.35;0.90;;;;;;;;;;5054834;28;20036;-36
2021/07/18 10:28:28;;;;;;;2.53;0.80;;;;;;;;;;5053937;28;20029;-36
2021/07/18 10:31:00;;;;;;;1.77;0.73;;;;;;;;;;5052319;28;20057;-35
2021/07/18 10:33:27;;;;;;;;;;;;;;;;;;5054245;28;20029;-33
2021/07/18 10:35:55;;;;;;;1.73;0.73;;;;;;;;;;5054557;28;19909;-35
2021/07/18 10:38:24;;;;;;;3.38;0.80;;;;;;;;;;5053977;28;20533;-35
2021/07/18 10:40:55;;;;;;;1.80;0.70;;;;;;;;;;5054179;28;20036;-37
2021/07/18 10:43:41;;;;;;;0.97;0.60;;;;;;;;;;5051469;28;20737;-35
2021/07/18 10:46:12;;;;;;;1.40;0.60;;;;;;;;;;5054198;28;20040;-36
2021/07/18 10:48:52;;;;;;;1.27;0.80;;;;;;;;;;5052800;28;20396;-36
2021/07/18 10:51:20;;;;;;;3.58;0.80;;;;;;;;;;5054274;28;20029;-35
2021/07/18 10:53:50;;;;;;;2.42;0.82;;;;;;;;;;5052468;28;20541;-36
2021/07/18 10:56:18;;;;;;;1.70;0.95;;;;;;;;;;5052647;28;20431;-36
2021/07/18 10:58:46;;;;;;;3.03;1.20;;;;;;;;;;5053319;28;20021;-35
2021/07/18 11:01:23;;;;;;;1.38;0.60;;;;;;;;;;5053255;28;20051;-39
2021/07/18 11:03:50;;;;;;;1.40;0.47;;;;;;;;;;5053727;28;20021;-40
2021/07/18 11:06:20;;;;;;;1.60;0.80;;;;;;;;;;5051817;28;20063;-36
2021/07/18 11:09:08;;;;;;;1.38;0.70;;;;;;;;;;5053367;28;20025;-36
2021/07/18 11:11:48;;;;;;;1.02;0.50;;;;;;;;;;5054045;28;20036;-35
2021/07/18 11:14:34;;;;;;;1.83;0.75;;;;;;;;;;5053202;28;20148;-35
2021/07/18 11:17:02;;;;;;;0.80;0.50;;;;;;;;;;5053641;28;20074;-39
2021/07/18 11:19:39;;;;;;;1.55;0.70;;;;;;;;;;5050958;28;20445;-35
2021/07/18 11:22:07;;;;;;;1.25;0.70;;;;;;;;;;5053516;28;20411;-35
2021/07/18 11:24:53;;;;;;;1.35;0.77;;;;;;;;;;5053454;28;20024;-35
2021/07/18 11:27:36;;;;;;;3.25;0.50;;;;;;;;;;5053352;28;20025;-35
2021/07/18 11:30:23;;;;;;;3.83;0.60;;;;;;;;;;5051344;28;20035;-35
2021/07/18 11:32:52;;;;;;;1.15;0.50;;;;;;;;;;5052811;28;20033;-35
2021/07/18 11:35:19;;;;;;;2.65;0.65;;;;;;;;;;5053074;28;20059;-35
2021/07/18 11:37:48;;;;;;;0.80;0.50;;;;;;;;;;5053254;28;20036;-35
2021/07/18 11:40:16;;;;;;;1.73;0.40;;;;;;;;;;5051774;28;20040;-36
2021/07/18 11:42:43;;;;;;;0.93;0.55;;;;;;;;;;5050543;28;20495;-36
2021/07/18 11:45:13;;;;;;;1.70;0.60;;;;;;;;;;5053001;28;20116;-35
2021/07/18 11:47:41;;;;;;;1.00;0.50;;;;;;;;;;5052734;28;20021;-35
2021/07/18 11:50:15;;;;;;;1.92;0.60;;;;;;;;;;5052630;28;20021;-38
2021/07/18 11:52:42;;;;;;;1.83;0.60;;;;;;;;;;5052770;28;20021;-36
2021/07/18 11:55:10;;;;;;;1.10;0.60;;;;;;;;;;5050535;28;20431;-37
2021/07/18 11:57:42;;;;;;;1.85;0.68;;;;;;;;;;5051324;28;20087;-35
2021/07/18 12:00:09;;;;;;;1.42;0.68;;;;;;;;;;5052807;28;20127;-35
2021/07/18 12:02:39;;;;;;;2.70;0.70;;;;;;;;;;5052555;28;20407;-35
2021/07/18 12:05:07;;;;;;;1.05;0.50;;;;;;;;;;5050926;28;20051;-35
2021/07/18 12:07:35;;;;;;;1.20;0.50;;;;;;;;;;5050698;28;20103;-36
2021/07/18 12:10:02;;;;;;;0.82;0.30;;;;;;;;;;5052566;28;20033;-35
2021/07/18 12:12:28;;;;;;;1.23;0.65;;;;;;;;;;5052065;28;20025;-35
2021/07/18 12:14:56;;;;;;;2.63;0.50;;;;;;;;;;5052677;28;20108;-35
2021/07/18 12:17:23;;;;;;;2.15;0.65;;;;;;;;;;5051630;28;20028;-34
2021/07/18 12:19:52;;;;;;;3.08;0.65;;;;;;;;;;5050679;28;20165;-35
2021/07/18 12:22:20;;;;;;;3.80;0.57;;;;;;;;;;5052135;28;20388;-34
2021/07/18 12:24:50;;;;;;;2.58;0.70;;;;;;;;;;5051188;28;20434;-34
2021/07/18 12:27:27;;;;;;;2.88;0.50;;;;;;;;;;5052217;28;20067;-35
2021/07/18 12:29:56;;;;;;;3.13;0.95;;;;;;;;;;5050583;28;20103;-36
2021/07/18 12:32:26;;;;;;;1.30;0.50;;;;;;;;;;5051155;28;20025;-34
2021/07/18 12:34:54;;;;;;;1.27;0.60;;;;;;;;;;5052189;28;20032;-35
2021/07/18 12:37:22;;;;;;;0.47;0.38;;;;;;;;;;5052201;28;20031;-35
2021/07/18 12:40:02;;;;;;;4.90;0.57;;;;;;;;;;5051843;28;20379;-35
2021/07/18 12:42:30;;;;;;;1.65;0.68;;;;;;;;;;5050100;28;20029;-36
2021/07/18 12:44:59;;;;;;;2.08;0.70;;;;;;;;;;5051320;28;20024;-35
2021/07/18 12:47:29;;;;;;;1.55;0.40;;;;;;;;;;5050845;28;20028;-35
2021/07/18 12:50:08;;;;;;;1.85;0.60;;;;;;;;;;5050323;28;20108;-35
2021/07/18 12:52:36;;;;;;;2.17;0.68;;;;;;;;;;5051847;28;20024;-35
2021/07/18 12:55:13;;;;;;;3.60;0.63;;;;;;;;;;5049213;28;20484;-35
2021/07/18 12:57:40;;;;;;;1.30;0.47;;;;;;;;;;5051861;28;20021;-37
2021/07/18 13:00:09;;;;;;;1.17;0.50;;;;;;;;;;5051335;28;20040;-35
2021/07/18 13:02:36;;;;;;;0.40;0.30;;;;;;;;;;5051686;28;20021;-35
2021/07/18 13:05:05;;;;;;;1.65;0.57;;;;;;;;;;5050962;28;20021;-35
2021/07/18 13:07:32;;;;;;;1.35;0.57;;;;;;;;;;5049877;28;20021;-35
2021/07/18 13:10:12;;;;;;;1.23;0.60;;;;;;;;;;5051156;28;20151;-36
2021/07/18 13:12:40;;;;;;;1.35;0.35;;;;;;;;;;5051680;28;20022;-36
2021/07/18 13:15:16;;;;;;;2.67;0.50;;;;;;;;;;5051030;28;20036;-35
2021/07/18 13:17:50;;;;;;;0.80;0.55;;;;;;;;;;5049433;28;20382;-35
2021/07/18 13:20:18;;;;;;;0.98;0.30;;;;;;;;;;5049373;28;20429;-35
2021/07/18 13:22:45;;;;;;;0.82;0.30;;;;;;;;;;5050260;28;20056;-35
2021/07/18 13:25:20;;;;;;;1.45;0.65;;;;;;;;;;5050852;28;20059;-35
2021/07/18 13:27:47;;;;;;;1.10;0.40;;;;;;;;;;5050768;28;20488;-35
2021/07/18 13:30:14;;;;;;;1.17;0.40;;;;;;;;;;5049330;28;20025;-35
2021/07/18 13:32:42;;;;;;;1.45;0.60;;;;;;;;;;5050893;28;20107;-36
2021/07/18 13:35:10;;;;;;;1.83;0.60;;;;;;;;;;5045987;28;20037;-35
2021/07/18 13:37:54;;;;;;;1.35;0.60;;;;;;;;;;5047524;28;20025;-41
2021/07/18 13:40:22;;;;;;;2.25;0.55;;;;;;;;;;5045607;28;20028;-35
2021/07/18 13:42:49;;;;;;;3.72;0.80;;;;;;;;;;5044925;28;20105;-35
2021/07/18 13:45:16;;;;;;;2.33;0.50;;;;;;;;;;5047501;28;20103;-35
2021/07/18 13:47:43;;;;;;;4.75;0.50;;;;;;;;;;5045286;28;20036;-36
2021/07/18 13:50:10;;;;;;;2.30;0.60;;;;;;;;;;5047436;28;20036;-35
2021/07/18 13:52:37;;;;;;;5.72;0.80;;;;;;;;;;5042586;28;20454;-35
2021/07/18 13:55:05;;;;;;;2.28;0.60;;;;;;;;;;5041065;28;20042;-34
2021/07/18 13:57:32;;;;;;;3.92;0.85;;;;;;;;;;5044611;28;20032;-35
2021/07/18 14:00:01;;;;;;;4.70;0.60;;;;;;;;;;5040566;28;20480;-35
2021/07/18 14:02:28;;;;;;;2.25;0.70;;;;;;;;;;5047632;28;20079;-35
2021/07/18 14:04:55;;;;;;;3.75;0.93;;;;;;;;;;5045483;28;20396;-35
2021/07/18 14:07:22;;;;;;;4.82;0.77;;;;;;;;;;5044783;28;20051;-35
2021/07/18 14:09:49;;;;;;;3.85;1.05;;;;;;;;;;5062109;28;20021;-35
2021/07/18 14:12:16;;;;;;;6.03;0.85;;;;;;;;;;5045292;28;20029;-35
2021/07/18 14:14:46;;;;;;;2.40;0.80;;;;;;;;;;5042772;28;20033;-36
2021/07/18 14:17:14;;;;;;;4.05;0.73;;;;;;;;;;5037101;28;20032;-35
2021/07/18 14:19:41;;;;;;;7.75;1.02;;;;;;;;;;5034030;28;20480;-34
2021/07/18 14:22:08;;;;;;;2.92;0.80;;;;;;;;;;5042622;28;20018;-35
2021/07/18 14:24:36;;;;;;;11.70;1.38;;;;;;;;;;5047887;28;20057;-35
2021/07/18 14:27:04;;;;;;;5.10;1.30;;;;;;;;;;5043117;28;20515;-34
2021/07/18 14:29:31;;;;;;;7.43;1.55;;;;;;;;;;5043443;28;20636;-35
2021/07/18 14:31:58;;;;;;;4.95;1.15;;;;;;;;;;5040102;28;20025;-35
2021/07/18 14:34:26;;;;;;;8.18;1.63;;;;;;;;;;5049057;28;20383;-34
2021/07/18 14:36:53;;;;;;;9.00;1.33;;;;;;;;;;5044975;28;20053;-45
2021/07/18 14:39:20;;;;;;;7.30;1.40;;;;;;;;;;5058031;28;20081;-50
2021/07/18 14:41:47;;;;;;;8.25;1.40;;;;;;;;;;5047270;28;20029;-38
2021/07/18 14:44:14;;;;;;;5.63;1.10;;;;;;;;;;5045272;28;20472;-44
2021/07/18 14:46:41;;;;;;;10.27;1.20;;;;;;;;;;5051511;28;20025;-47